sensor_id;sensor_type;location;lat;lon;timestamp;P1;durP1;ratioP1;P2;durP2;ratioP2
12597;SDS011;6364;53.590;9.956;2023-12-04T00:00:44;51.05;;;23.13;;
12597;SDS011;6364;53.590;9.956;2023-12-04T00:03:09;49.67;;;22.85;;
12597;SDS011;6364;53.590;9.956;2023-12-04T00:05:34;49.92;;;20.98;;
12597;SDS011;6364;53.590;9.956;2023-12-04T00:08:00;49.17;;;23.00;;
12597;SDS011;6364;53.590;9.956;2023-12-04T00:10:25;43.60;;;20.63;;
12597;SDS011;6364;53.590;9.956;2023-12-04T00:12:51;44.70;;;22.25;;
12597;SDS011;6364;53.590;9.956;2023-12-04T00:15:17;50.58;;;23.13;;
12597;SDS011;6364;53.590;9.956;2023-12-04T00:17:44;46.88;;;21.15;;
12597;SDS011;6364;53.590;9.956;2023-12-04T00:20:09;47.50;;;23.10;;
12597;SDS011;6364;53.590;9.956;2023-12-04T00:22:35;44.95;;;20.40;;
12597;SDS011;6364;53.590;9.956;2023-12-04T00:27:33;45.05;;;21.20;;
12597;SDS011;6364;53.590;9.956;2023-12-04T00:29:59;46.47;;;21.25;;
12597;SDS011;6364;53.590;9.956;2023-12-04T00:32:24;46.90;;;21.80;;
12597;SDS011;6364;53.590;9.956;2023-12-04T00:34:50;46.45;;;21.80;;
12597;SDS011;6364;53.590;9.956;2023-12-04T00:37:15;44.42;;;21.10;;
12597;SDS011;6364;53.590;9.956;2023-12-04T00:39:40;46.90;;;21.48;;
12597;SDS011;6364;53.590;9.956;2023-12-04T00:42:06;48.88;;;21.33;;
12597;SDS011;6364;53.590;9.956;2023-12-04T00:44:31;43.55;;;20.48;;
12597;SDS011;6364;53.590;9.956;2023-12-04T00:46:57;48.00;;;21.95;;
12597;SDS011;6364;53.590;9.956;2023-12-04T00:49:22;44.72;;;22.17;;
12597;SDS011;6364;53.590;9.956;2023-12-04T00:51:48;51.45;;;23.60;;
12597;SDS011;6364;53.590;9.956;2023-12-04T00:54:14;51.55;;;23.10;;
12597;SDS011;6364;53.590;9.956;2023-12-04T00:56:39;49.85;;;22.60;;
12597;SDS011;6364;53.590;9.956;2023-12-04T00:59:05;46.28;;;21.67;;
12597;SDS011;6364;53.590;9.956;2023-12-04T01:01:31;39.38;;;17.55;;
12597;SDS011;6364;53.590;9.956;2023-12-04T01:03:57;45.70;;;22.15;;
12597;SDS011;6364;53.590;9.956;2023-12-04T01:06:23;46.65;;;22.35;;
12597;SDS011;6364;53.590;9.956;2023-12-04T01:08:49;45.25;;;22.27;;
12597;SDS011;6364;53.590;9.956;2023-12-04T01:11:15;48.40;;;21.90;;
12597;SDS011;6364;53.590;9.956;2023-12-04T01:13:41;46.58;;;22.80;;
12597;SDS011;6364;53.590;9.956;2023-12-04T01:16:07;44.92;;;22.52;;
12597;SDS011;6364;53.590;9.956;2023-12-04T01:18:33;48.88;;;22.92;;
12597;SDS011;6364;53.590;9.956;2023-12-04T01:20:58;47.95;;;21.77;;
12597;SDS011;6364;53.590;9.956;2023-12-04T01:23:24;43.80;;;20.85;;
12597;SDS011;6364;53.590;9.956;2023-12-04T01:25:51;47.15;;;22.10;;
12597;SDS011;6364;53.590;9.956;2023-12-04T01:28:16;49.78;;;22.10;;
12597;SDS011;6364;53.590;9.956;2023-12-04T01:30:41;48.35;;;21.80;;
12597;SDS011;6364;53.590;9.956;2023-12-04T01:33:07;44.72;;;21.17;;
12597;SDS011;6364;53.590;9.956;2023-12-04T01:35:33;49.45;;;22.75;;
12597;SDS011;6364;53.590;9.956;2023-12-04T01:37:58;46.55;;;22.50;;
12597;SDS011;6364;53.590;9.956;2023-12-04T01:40:24;44.03;;;21.95;;
12597;SDS011;6364;53.590;9.956;2023-12-04T01:42:49;45.13;;;21.90;;
12597;SDS011;6364;53.590;9.956;2023-12-04T01:45:15;42.28;;;20.38;;
12597;SDS011;6364;53.590;9.956;2023-12-04T01:47:40;43.95;;;21.08;;
12597;SDS011;6364;53.590;9.956;2023-12-04T01:50:05;46.00;;;21.65;;
12597;SDS011;6364;53.590;9.956;2023-12-04T01:52:32;46.60;;;22.67;;
12597;SDS011;6364;53.590;9.956;2023-12-04T01:54:58;45.90;;;21.55;;
12597;SDS011;6364;53.590;9.956;2023-12-04T01:57:23;47.78;;;21.83;;
12597;SDS011;6364;53.590;9.956;2023-12-04T01:59:48;51.03;;;23.25;;
12597;SDS011;6364;53.590;9.956;2023-12-04T02:02:14;48.15;;;21.88;;
12597;SDS011;6364;53.590;9.956;2023-12-04T02:04:39;46.08;;;21.73;;
12597;SDS011;6364;53.590;9.956;2023-12-04T02:07:05;47.88;;;21.27;;
12597;SDS011;6364;53.590;9.956;2023-12-04T02:09:30;44.42;;;21.52;;
12597;SDS011;6364;53.590;9.956;2023-12-04T02:11:55;51.67;;;21.55;;
12597;SDS011;6364;53.590;9.956;2023-12-04T02:14:30;49.15;;;22.38;;
12597;SDS011;6364;53.590;9.956;2023-12-04T02:19:20;47.65;;;21.90;;
12597;SDS011;6364;53.590;9.956;2023-12-04T02:21:46;51.92;;;21.50;;
12597;SDS011;6364;53.590;9.956;2023-12-04T02:24:11;48.67;;;21.63;;
12597;SDS011;6364;53.590;9.956;2023-12-04T02:29:30;49.97;;;21.73;;
12597;SDS011;6364;53.590;9.956;2023-12-04T02:31:57;48.63;;;23.40;;
12597;SDS011;6364;53.590;9.956;2023-12-04T02:34:23;49.67;;;21.58;;
12597;SDS011;6364;53.590;9.956;2023-12-04T02:36:49;45.30;;;21.20;;
12597;SDS011;6364;53.590;9.956;2023-12-04T02:39:15;48.78;;;22.98;;
12597;SDS011;6364;53.590;9.956;2023-12-04T02:41:41;49.40;;;21.95;;
12597;SDS011;6364;53.590;9.956;2023-12-04T02:44:06;52.33;;;22.60;;
12597;SDS011;6364;53.590;9.956;2023-12-04T02:46:32;54.13;;;22.30;;
12597;SDS011;6364;53.590;9.956;2023-12-04T02:48:57;42.97;;;21.38;;
12597;SDS011;6364;53.590;9.956;2023-12-04T02:51:22;49.00;;;22.20;;
12597;SDS011;6364;53.590;9.956;2023-12-04T02:53:51;44.28;;;21.83;;
12597;SDS011;6364;53.590;9.956;2023-12-04T02:56:16;43.70;;;20.98;;
12597;SDS011;6364;53.590;9.956;2023-12-04T02:58:41;48.13;;;21.02;;
12597;SDS011;6364;53.590;9.956;2023-12-04T03:01:07;50.38;;;22.10;;
12597;SDS011;6364;53.590;9.956;2023-12-04T03:03:32;44.25;;;21.33;;
12597;SDS011;6364;53.590;9.956;2023-12-04T03:05:57;48.35;;;21.75;;
12597;SDS011;6364;53.590;9.956;2023-12-04T03:08:23;46.45;;;22.63;;
12597;SDS011;6364;53.590;9.956;2023-12-04T03:10:48;47.70;;;22.98;;
12597;SDS011;6364;53.590;9.956;2023-12-04T03:13:13;49.17;;;21.85;;
12597;SDS011;6364;53.590;9.956;2023-12-04T03:15:39;45.95;;;21.30;;
12597;SDS011;6364;53.590;9.956;2023-12-04T03:18:04;48.17;;;22.27;;
12597;SDS011;6364;53.590;9.956;2023-12-04T03:20:31;49.90;;;21.98;;
12597;SDS011;6364;53.590;9.956;2023-12-04T03:22:57;47.78;;;21.80;;
12597;SDS011;6364;53.590;9.956;2023-12-04T03:25:23;46.92;;;21.20;;
12597;SDS011;6364;53.590;9.956;2023-12-04T03:27:48;47.13;;;20.88;;
12597;SDS011;6364;53.590;9.956;2023-12-04T03:30:13;50.38;;;22.45;;
12597;SDS011;6364;53.590;9.956;2023-12-04T03:32:39;44.75;;;20.77;;
12597;SDS011;6364;53.590;9.956;2023-12-04T03:35:04;48.00;;;21.73;;
12597;SDS011;6364;53.590;9.956;2023-12-04T03:37:30;50.55;;;21.73;;
12597;SDS011;6364;53.590;9.956;2023-12-04T03:39:55;43.63;;;19.48;;
12597;SDS011;6364;53.590;9.956;2023-12-04T03:42:20;44.85;;;19.92;;
12597;SDS011;6364;53.590;9.956;2023-12-04T03:44:46;45.88;;;20.70;;
12597;SDS011;6364;53.590;9.956;2023-12-04T03:47:11;46.30;;;19.98;;
12597;SDS011;6364;53.590;9.956;2023-12-04T03:49:36;44.25;;;20.40;;
12597;SDS011;6364;53.590;9.956;2023-12-04T03:52:02;44.58;;;20.35;;
12597;SDS011;6364;53.590;9.956;2023-12-04T03:54:27;43.63;;;20.17;;
12597;SDS011;6364;53.590;9.956;2023-12-04T03:56:53;49.38;;;19.70;;
12597;SDS011;6364;53.590;9.956;2023-12-04T03:59:18;51.38;;;20.92;;
12597;SDS011;6364;53.590;9.956;2023-12-04T04:01:43;44.70;;;19.20;;
12597;SDS011;6364;53.590;9.956;2023-12-04T04:04:18;47.47;;;19.00;;
12597;SDS011;6364;53.590;9.956;2023-12-04T04:06:44;43.78;;;19.75;;
12597;SDS011;6364;53.590;9.956;2023-12-04T04:09:09;43.80;;;18.98;;
12597;SDS011;6364;53.590;9.956;2023-12-04T04:11:34;45.55;;;19.45;;
12597;SDS011;6364;53.590;9.956;2023-12-04T04:14:00;42.33;;;18.85;;
12597;SDS011;6364;53.590;9.956;2023-12-04T04:16:25;45.55;;;18.88;;
12597;SDS011;6364;53.590;9.956;2023-12-04T04:18:51;42.70;;;18.40;;
12597;SDS011;6364;53.590;9.956;2023-12-04T04:21:16;47.95;;;19.73;;
12597;SDS011;6364;53.590;9.956;2023-12-04T04:23:41;41.30;;;18.13;;
12597;SDS011;6364;53.590;9.956;2023-12-04T04:26:07;42.10;;;18.98;;
12597;SDS011;6364;53.590;9.956;2023-12-04T04:28:32;33.97;;;16.30;;
12597;SDS011;6364;53.590;9.956;2023-12-04T04:30:58;42.75;;;18.38;;
12597;SDS011;6364;53.590;9.956;2023-12-04T04:33:23;38.30;;;18.27;;
12597;SDS011;6364;53.590;9.956;2023-12-04T04:35:49;42.42;;;18.10;;
12597;SDS011;6364;53.590;9.956;2023-12-04T04:38:14;45.10;;;18.88;;
12597;SDS011;6364;53.590;9.956;2023-12-04T04:40:40;38.78;;;17.55;;
12597;SDS011;6364;53.590;9.956;2023-12-04T04:43:08;43.20;;;18.88;;
12597;SDS011;6364;53.590;9.956;2023-12-04T04:45:35;33.50;;;16.30;;
12597;SDS011;6364;53.590;9.956;2023-12-04T04:48:01;35.75;;;17.63;;
12597;SDS011;6364;53.590;9.956;2023-12-04T04:50:26;38.50;;;16.95;;
12597;SDS011;6364;53.590;9.956;2023-12-04T04:52:51;35.60;;;17.30;;
12597;SDS011;6364;53.590;9.956;2023-12-04T04:55:17;39.63;;;18.85;;
12597;SDS011;6364;53.590;9.956;2023-12-04T04:57:42;37.38;;;16.80;;
12597;SDS011;6364;53.590;9.956;2023-12-04T05:00:07;35.58;;;17.75;;
12597;SDS011;6364;53.590;9.956;2023-12-04T05:02:33;39.20;;;18.25;;
12597;SDS011;6364;53.590;9.956;2023-12-04T05:05:02;32.97;;;16.63;;
12597;SDS011;6364;53.590;9.956;2023-12-04T05:07:29;34.60;;;16.83;;
12597;SDS011;6364;53.590;9.956;2023-12-04T05:09:54;38.80;;;17.63;;
12597;SDS011;6364;53.590;9.956;2023-12-04T05:12:19;37.83;;;17.27;;
12597;SDS011;6364;53.590;9.956;2023-12-04T05:14:45;33.97;;;15.48;;
12597;SDS011;6364;53.590;9.956;2023-12-04T05:17:10;39.90;;;17.60;;
12597;SDS011;6364;53.590;9.956;2023-12-04T05:19:35;37.35;;;18.35;;
12597;SDS011;6364;53.590;9.956;2023-12-04T05:22:01;40.47;;;16.98;;
12597;SDS011;6364;53.590;9.956;2023-12-04T05:24:26;36.88;;;18.27;;
12597;SDS011;6364;53.590;9.956;2023-12-04T05:26:52;43.00;;;17.20;;
12597;SDS011;6364;53.590;9.956;2023-12-04T05:29:17;37.75;;;17.88;;
12597;SDS011;6364;53.590;9.956;2023-12-04T05:31:43;42.40;;;17.45;;
12597;SDS011;6364;53.590;9.956;2023-12-04T05:34:08;41.53;;;16.40;;
12597;SDS011;6364;53.590;9.956;2023-12-04T05:36:33;30.23;;;16.10;;
12597;SDS011;6364;53.590;9.956;2023-12-04T05:38:59;40.25;;;16.23;;
12597;SDS011;6364;53.590;9.956;2023-12-04T05:41:24;34.38;;;17.02;;
12597;SDS011;6364;53.590;9.956;2023-12-04T05:43:49;46.20;;;17.77;;
12597;SDS011;6364;53.590;9.956;2023-12-04T05:46:15;40.20;;;17.55;;
12597;SDS011;6364;53.590;9.956;2023-12-04T05:48:40;37.08;;;17.38;;
12597;SDS011;6364;53.590;9.956;2023-12-04T05:51:05;33.55;;;16.90;;
12597;SDS011;6364;53.590;9.956;2023-12-04T05:53:31;37.95;;;16.88;;
12597;SDS011;6364;53.590;9.956;2023-12-04T05:55:56;39.50;;;15.95;;
12597;SDS011;6364;53.590;9.956;2023-12-04T05:58:22;38.03;;;15.90;;
12597;SDS011;6364;53.590;9.956;2023-12-04T06:00:47;30.05;;;15.77;;
12597;SDS011;6364;53.590;9.956;2023-12-04T06:03:12;31.63;;;15.50;;
12597;SDS011;6364;53.590;9.956;2023-12-04T06:05:38;34.28;;;16.85;;
12597;SDS011;6364;53.590;9.956;2023-12-04T06:08:03;32.72;;;16.08;;
12597;SDS011;6364;53.590;9.956;2023-12-04T06:10:29;35.92;;;17.25;;
12597;SDS011;6364;53.590;9.956;2023-12-04T06:12:55;36.58;;;17.23;;
12597;SDS011;6364;53.590;9.956;2023-12-04T06:15:20;36.75;;;17.10;;
12597;SDS011;6364;53.590;9.956;2023-12-04T06:17:46;37.05;;;16.77;;
12597;SDS011;6364;53.590;9.956;2023-12-04T06:20:11;33.13;;;16.80;;
12597;SDS011;6364;53.590;9.956;2023-12-04T06:22:36;40.78;;;18.77;;
12597;SDS011;6364;53.590;9.956;2023-12-04T06:25:02;37.53;;;18.75;;
12597;SDS011;6364;53.590;9.956;2023-12-04T06:27:28;37.28;;;17.92;;
12597;SDS011;6364;53.590;9.956;2023-12-04T06:29:54;38.47;;;19.08;;
12597;SDS011;6364;53.590;9.956;2023-12-04T06:32:20;39.05;;;18.45;;
12597;SDS011;6364;53.590;9.956;2023-12-04T06:34:45;36.25;;;18.08;;
12597;SDS011;6364;53.590;9.956;2023-12-04T06:37:12;41.28;;;17.92;;
12597;SDS011;6364;53.590;9.956;2023-12-04T06:39:38;40.60;;;19.27;;
12597;SDS011;6364;53.590;9.956;2023-12-04T06:42:07;42.30;;;19.60;;
12597;SDS011;6364;53.590;9.956;2023-12-04T06:44:34;39.78;;;19.15;;
12597;SDS011;6364;53.590;9.956;2023-12-04T06:47:00;38.00;;;18.92;;
12597;SDS011;6364;53.590;9.956;2023-12-04T06:49:27;45.28;;;20.30;;
12597;SDS011;6364;53.590;9.956;2023-12-04T06:51:55;38.55;;;19.77;;
12597;SDS011;6364;53.590;9.956;2023-12-04T06:54:20;38.38;;;18.50;;
12597;SDS011;6364;53.590;9.956;2023-12-04T06:56:46;46.05;;;20.10;;
12597;SDS011;6364;53.590;9.956;2023-12-04T06:59:11;42.10;;;19.55;;
12597;SDS011;6364;53.590;9.956;2023-12-04T07:01:37;44.03;;;19.75;;
12597;SDS011;6364;53.590;9.956;2023-12-04T07:04:02;43.03;;;18.33;;
12597;SDS011;6364;53.590;9.956;2023-12-04T07:06:34;39.47;;;19.73;;
12597;SDS011;6364;53.590;9.956;2023-12-04T07:09:03;45.45;;;20.25;;
12597;SDS011;6364;53.590;9.956;2023-12-04T07:11:28;44.33;;;20.00;;
12597;SDS011;6364;53.590;9.956;2023-12-04T07:13:54;45.67;;;21.13;;
12597;SDS011;6364;53.590;9.956;2023-12-04T07:16:20;42.88;;;20.15;;
12597;SDS011;6364;53.590;9.956;2023-12-04T07:18:45;43.70;;;20.83;;
12597;SDS011;6364;53.590;9.956;2023-12-04T07:21:11;45.38;;;20.70;;
12597;SDS011;6364;53.590;9.956;2023-12-04T07:23:36;44.47;;;20.05;;
12597;SDS011;6364;53.590;9.956;2023-12-04T07:26:01;45.63;;;21.25;;
12597;SDS011;6364;53.590;9.956;2023-12-04T07:28:27;45.72;;;20.58;;
12597;SDS011;6364;53.590;9.956;2023-12-04T07:30:54;43.67;;;18.50;;
12597;SDS011;6364;53.590;9.956;2023-12-04T07:33:19;43.97;;;20.30;;
12597;SDS011;6364;53.590;9.956;2023-12-04T07:35:45;47.50;;;21.65;;
12597;SDS011;6364;53.590;9.956;2023-12-04T07:38:10;45.30;;;20.60;;
12597;SDS011;6364;53.590;9.956;2023-12-04T07:40:35;43.55;;;20.75;;
12597;SDS011;6364;53.590;9.956;2023-12-04T07:43:01;47.45;;;21.35;;
12597;SDS011;6364;53.590;9.956;2023-12-04T07:45:27;47.38;;;20.88;;
12597;SDS011;6364;53.590;9.956;2023-12-04T07:47:53;48.97;;;21.25;;
12597;SDS011;6364;53.590;9.956;2023-12-04T07:50:18;48.67;;;20.52;;
12597;SDS011;6364;53.590;9.956;2023-12-04T07:52:44;46.70;;;21.15;;
12597;SDS011;6364;53.590;9.956;2023-12-04T07:55:09;48.28;;;21.98;;
12597;SDS011;6364;53.590;9.956;2023-12-04T07:57:34;47.15;;;21.05;;
12597;SDS011;6364;53.590;9.956;2023-12-04T08:00:00;49.20;;;21.17;;
12597;SDS011;6364;53.590;9.956;2023-12-04T08:02:25;48.30;;;21.73;;
12597;SDS011;6364;53.590;9.956;2023-12-04T08:04:50;45.53;;;21.73;;
12597;SDS011;6364;53.590;9.956;2023-12-04T08:07:16;47.65;;;20.80;;
12597;SDS011;6364;53.590;9.956;2023-12-04T08:09:41;46.47;;;20.50;;
12597;SDS011;6364;53.590;9.956;2023-12-04T08:12:06;45.90;;;20.80;;
12597;SDS011;6364;53.590;9.956;2023-12-04T08:14:32;41.85;;;19.52;;
12597;SDS011;6364;53.590;9.956;2023-12-04T08:16:58;47.05;;;21.42;;
12597;SDS011;6364;53.590;9.956;2023-12-04T08:19:24;47.70;;;20.95;;
12597;SDS011;6364;53.590;9.956;2023-12-04T08:21:49;50.28;;;21.75;;
12597;SDS011;6364;53.590;9.956;2023-12-04T08:24:14;46.97;;;21.20;;
12597;SDS011;6364;53.590;9.956;2023-12-04T08:26:43;46.00;;;20.90;;
12597;SDS011;6364;53.590;9.956;2023-12-04T08:29:09;44.72;;;21.05;;
12597;SDS011;6364;53.590;9.956;2023-12-04T08:31:34;45.95;;;21.15;;
12597;SDS011;6364;53.590;9.956;2023-12-04T08:34:00;45.33;;;20.45;;
12597;SDS011;6364;53.590;9.956;2023-12-04T08:36:25;48.55;;;22.63;;
12597;SDS011;6364;53.590;9.956;2023-12-04T08:38:50;53.20;;;23.90;;
12597;SDS011;6364;53.590;9.956;2023-12-04T08:41:16;44.97;;;21.92;;
12597;SDS011;6364;53.590;9.956;2023-12-04T08:43:41;55.78;;;23.08;;
12597;SDS011;6364;53.590;9.956;2023-12-04T08:46:16;45.70;;;21.75;;
12597;SDS011;6364;53.590;9.956;2023-12-04T08:48:41;42.03;;;19.95;;
12597;SDS011;6364;53.590;9.956;2023-12-04T08:51:07;46.65;;;22.00;;
12597;SDS011;6364;53.590;9.956;2023-12-04T08:53:36;48.85;;;21.30;;
12597;SDS011;6364;53.590;9.956;2023-12-04T08:56:03;44.05;;;21.75;;
12597;SDS011;6364;53.590;9.956;2023-12-04T08:58:28;50.47;;;22.65;;
12597;SDS011;6364;53.590;9.956;2023-12-04T09:00:54;50.75;;;22.88;;
12597;SDS011;6364;53.590;9.956;2023-12-04T09:03:19;49.40;;;22.08;;
12597;SDS011;6364;53.590;9.956;2023-12-04T09:05:45;50.60;;;21.08;;
12597;SDS011;6364;53.590;9.956;2023-12-04T09:08:11;44.85;;;20.83;;
12597;SDS011;6364;53.590;9.956;2023-12-04T09:10:36;50.40;;;22.20;;
12597;SDS011;6364;53.590;9.956;2023-12-04T09:13:02;48.40;;;21.33;;
12597;SDS011;6364;53.590;9.956;2023-12-04T09:15:27;49.40;;;22.42;;
12597;SDS011;6364;53.590;9.956;2023-12-04T09:17:52;46.05;;;21.33;;
12597;SDS011;6364;53.590;9.956;2023-12-04T09:20:18;55.40;;;23.27;;
12597;SDS011;6364;53.590;9.956;2023-12-04T09:22:43;54.92;;;23.52;;
12597;SDS011;6364;53.590;9.956;2023-12-04T09:25:09;49.25;;;22.85;;
12597;SDS011;6364;53.590;9.956;2023-12-04T09:27:34;49.90;;;22.15;;
12597;SDS011;6364;53.590;9.956;2023-12-04T09:30:00;49.25;;;23.23;;
12597;SDS011;6364;53.590;9.956;2023-12-04T09:32:26;47.17;;;23.45;;
12597;SDS011;6364;53.590;9.956;2023-12-04T09:34:51;45.28;;;22.08;;
12597;SDS011;6364;53.590;9.956;2023-12-04T09:37:17;45.22;;;21.40;;
12597;SDS011;6364;53.590;9.956;2023-12-04T09:39:42;51.83;;;23.17;;
12597;SDS011;6364;53.590;9.956;2023-12-04T09:42:07;47.72;;;22.88;;
12597;SDS011;6364;53.590;9.956;2023-12-04T09:44:33;47.47;;;21.85;;
12597;SDS011;6364;53.590;9.956;2023-12-04T09:46:59;48.63;;;21.67;;
12597;SDS011;6364;53.590;9.956;2023-12-04T09:49:28;47.10;;;23.08;;
12597;SDS011;6364;53.590;9.956;2023-12-04T09:51:54;49.67;;;23.80;;
12597;SDS011;6364;53.590;9.956;2023-12-04T09:54:22;49.85;;;24.02;;
12597;SDS011;6364;53.590;9.956;2023-12-04T09:56:47;50.50;;;22.38;;
12597;SDS011;6364;53.590;9.956;2023-12-04T09:59:14;46.35;;;22.40;;
12597;SDS011;6364;53.590;9.956;2023-12-04T10:01:40;44.05;;;21.90;;
12597;SDS011;6364;53.590;9.956;2023-12-04T10:04:06;49.85;;;22.95;;
12597;SDS011;6364;53.590;9.956;2023-12-04T10:06:31;48.70;;;22.55;;
12597;SDS011;6364;53.590;9.956;2023-12-04T10:08:57;48.63;;;22.85;;
12597;SDS011;6364;53.590;9.956;2023-12-04T10:11:23;45.03;;;22.98;;
12597;SDS011;6364;53.590;9.956;2023-12-04T10:13:49;44.95;;;21.92;;
12597;SDS011;6364;53.590;9.956;2023-12-04T10:16:29;49.78;;;23.10;;
12597;SDS011;6364;53.590;9.956;2023-12-04T10:18:56;48.55;;;22.48;;
12597;SDS011;6364;53.590;9.956;2023-12-04T10:21:21;46.47;;;22.25;;
12597;SDS011;6364;53.590;9.956;2023-12-04T10:23:47;45.30;;;22.63;;
12597;SDS011;6364;53.590;9.956;2023-12-04T10:26:15;43.85;;;21.85;;
12597;SDS011;6364;53.590;9.956;2023-12-04T10:28:42;48.47;;;22.02;;
12597;SDS011;6364;53.590;9.956;2023-12-04T10:31:24;44.88;;;21.70;;
12597;SDS011;6364;53.590;9.956;2023-12-04T10:33:49;44.38;;;20.73;;
12597;SDS011;6364;53.590;9.956;2023-12-04T10:36:14;44.65;;;21.05;;
12597;SDS011;6364;53.590;9.956;2023-12-04T10:38:40;45.88;;;22.25;;
12597;SDS011;6364;53.590;9.956;2023-12-04T10:41:14;46.50;;;22.15;;
12597;SDS011;6364;53.590;9.956;2023-12-04T10:43:46;46.83;;;21.75;;
12597;SDS011;6364;53.590;9.956;2023-12-04T10:46:13;40.90;;;21.23;;
12597;SDS011;6364;53.590;9.956;2023-12-04T10:48:41;46.25;;;22.25;;
12597;SDS011;6364;53.590;9.956;2023-12-04T10:51:07;44.03;;;21.85;;
12597;SDS011;6364;53.590;9.956;2023-12-04T10:53:32;46.95;;;22.50;;
12597;SDS011;6364;53.590;9.956;2023-12-04T10:55:58;43.17;;;21.77;;
12597;SDS011;6364;53.590;9.956;2023-12-04T10:58:25;46.72;;;20.98;;
12597;SDS011;6364;53.590;9.956;2023-12-04T11:00:51;39.97;;;20.17;;
12597;SDS011;6364;53.590;9.956;2023-12-04T11:03:30;41.97;;;20.60;;
12597;SDS011;6364;53.590;9.956;2023-12-04T11:06:01;42.70;;;19.90;;
12597;SDS011;6364;53.590;9.956;2023-12-04T11:08:29;40.05;;;20.08;;
12597;SDS011;6364;53.590;9.956;2023-12-04T11:11:08;41.47;;;19.95;;
12597;SDS011;6364;53.590;9.956;2023-12-04T11:13:37;43.10;;;20.83;;
12597;SDS011;6364;53.590;9.956;2023-12-04T11:16:12;38.95;;;19.95;;
12597;SDS011;6364;53.590;9.956;2023-12-04T11:18:43;41.35;;;19.38;;
12597;SDS011;6364;53.590;9.956;2023-12-04T11:21:10;42.00;;;20.73;;
12597;SDS011;6364;53.590;9.956;2023-12-04T11:23:37;35.75;;;19.75;;
12597;SDS011;6364;53.590;9.956;2023-12-04T11:26:03;40.83;;;19.80;;
12597;SDS011;6364;53.590;9.956;2023-12-04T11:28:30;39.60;;;18.55;;
12597;SDS011;6364;53.590;9.956;2023-12-04T11:30:56;35.97;;;19.13;;
12597;SDS011;6364;53.590;9.956;2023-12-04T11:33:22;39.88;;;20.38;;
12597;SDS011;6364;53.590;9.956;2023-12-04T11:35:49;36.08;;;18.75;;
12597;SDS011;6364;53.590;9.956;2023-12-04T11:38:16;37.95;;;20.35;;
12597;SDS011;6364;53.590;9.956;2023-12-04T11:40:42;40.50;;;19.35;;
12597;SDS011;6364;53.590;9.956;2023-12-04T11:43:26;35.85;;;18.77;;
12597;SDS011;6364;53.590;9.956;2023-12-04T11:45:53;36.78;;;18.23;;
12597;SDS011;6364;53.590;9.956;2023-12-04T11:48:22;36.63;;;18.55;;
12597;SDS011;6364;53.590;9.956;2023-12-04T11:50:49;36.42;;;19.05;;
12597;SDS011;6364;53.590;9.956;2023-12-04T11:53:15;38.33;;;19.35;;
12597;SDS011;6364;53.590;9.956;2023-12-04T11:55:41;40.90;;;20.02;;
12597;SDS011;6364;53.590;9.956;2023-12-04T11:58:10;37.75;;;18.50;;
12597;SDS011;6364;53.590;9.956;2023-12-04T12:00:36;34.38;;;19.40;;
12597;SDS011;6364;53.590;9.956;2023-12-04T12:03:03;36.42;;;18.77;;
12597;SDS011;6364;53.590;9.956;2023-12-04T12:05:32;36.50;;;18.05;;
12597;SDS011;6364;53.590;9.956;2023-12-04T12:07:59;37.17;;;19.20;;
12597;SDS011;6364;53.590;9.956;2023-12-04T12:10:28;33.47;;;18.73;;
12597;SDS011;6364;53.590;9.956;2023-12-04T12:12:54;37.95;;;18.63;;
12597;SDS011;6364;53.590;9.956;2023-12-04T12:15:20;38.85;;;18.33;;
12597;SDS011;6364;53.590;9.956;2023-12-04T12:17:46;36.17;;;18.70;;
12597;SDS011;6364;53.590;9.956;2023-12-04T12:20:12;34.38;;;18.27;;
12597;SDS011;6364;53.590;9.956;2023-12-04T12:22:39;34.63;;;18.35;;
12597;SDS011;6364;53.590;9.956;2023-12-04T12:25:08;36.35;;;18.40;;
12597;SDS011;6364;53.590;9.956;2023-12-04T12:27:35;36.95;;;18.77;;
12597;SDS011;6364;53.590;9.956;2023-12-04T12:30:00;35.33;;;17.95;;
12597;SDS011;6364;53.590;9.956;2023-12-04T12:32:26;35.05;;;18.15;;
12597;SDS011;6364;53.590;9.956;2023-12-04T12:34:52;36.50;;;18.70;;
12597;SDS011;6364;53.590;9.956;2023-12-04T12:37:17;34.95;;;18.17;;
12597;SDS011;6364;53.590;9.956;2023-12-04T12:39:43;34.28;;;17.95;;
12597;SDS011;6364;53.590;9.956;2023-12-04T12:42:09;37.33;;;18.80;;
12597;SDS011;6364;53.590;9.956;2023-12-04T12:44:40;36.80;;;17.88;;
12597;SDS011;6364;53.590;9.956;2023-12-04T12:47:06;35.28;;;17.90;;
12597;SDS011;6364;53.590;9.956;2023-12-04T12:49:32;33.45;;;17.85;;
12597;SDS011;6364;53.590;9.956;2023-12-04T12:51:59;39.28;;;18.17;;
12597;SDS011;6364;53.590;9.956;2023-12-04T12:54:25;33.00;;;18.70;;
12597;SDS011;6364;53.590;9.956;2023-12-04T12:56:50;34.38;;;16.90;;
12597;SDS011;6364;53.590;9.956;2023-12-04T12:59:15;40.00;;;18.85;;
12597;SDS011;6364;53.590;9.956;2023-12-04T13:01:42;36.38;;;18.63;;
12597;SDS011;6364;53.590;9.956;2023-12-04T13:04:08;36.25;;;18.02;;
12597;SDS011;6364;53.590;9.956;2023-12-04T13:06:35;33.65;;;18.17;;
12597;SDS011;6364;53.590;9.956;2023-12-04T13:09:00;34.65;;;18.52;;
12597;SDS011;6364;53.590;9.956;2023-12-04T13:11:25;34.70;;;18.70;;
12597;SDS011;6364;53.590;9.956;2023-12-04T13:13:51;35.00;;;19.13;;
12597;SDS011;6364;53.590;9.956;2023-12-04T13:16:16;31.00;;;16.92;;
12597;SDS011;6364;53.590;9.956;2023-12-04T13:18:41;34.05;;;18.05;;
12597;SDS011;6364;53.590;9.956;2023-12-04T13:21:07;36.55;;;17.30;;
12597;SDS011;6364;53.590;9.956;2023-12-04T13:23:35;36.28;;;18.15;;
12597;SDS011;6364;53.590;9.956;2023-12-04T13:26:01;32.42;;;17.48;;
12597;SDS011;6364;53.590;9.956;2023-12-04T13:28:26;36.25;;;18.30;;
12597;SDS011;6364;53.590;9.956;2023-12-04T13:30:52;32.45;;;17.58;;
12597;SDS011;6364;53.590;9.956;2023-12-04T13:33:18;36.65;;;19.05;;
12597;SDS011;6364;53.590;9.956;2023-12-04T13:35:44;35.75;;;17.88;;
12597;SDS011;6364;53.590;9.956;2023-12-04T13:38:10;36.80;;;18.00;;
12597;SDS011;6364;53.590;9.956;2023-12-04T13:40:38;35.78;;;17.42;;
12597;SDS011;6364;53.590;9.956;2023-12-04T13:43:04;34.75;;;17.15;;
12597;SDS011;6364;53.590;9.956;2023-12-04T13:45:49;34.47;;;17.27;;
12597;SDS011;6364;53.590;9.956;2023-12-04T13:48:14;32.05;;;16.75;;
12597;SDS011;6364;53.590;9.956;2023-12-04T13:50:40;31.35;;;16.50;;
12597;SDS011;6364;53.590;9.956;2023-12-04T13:53:05;37.13;;;18.13;;
12597;SDS011;6364;53.590;9.956;2023-12-04T13:55:36;33.88;;;18.02;;
12597;SDS011;6364;53.590;9.956;2023-12-04T13:58:19;36.75;;;16.95;;
12597;SDS011;6364;53.590;9.956;2023-12-04T14:01:11;35.95;;;16.08;;
12597;SDS011;6364;53.590;9.956;2023-12-04T14:03:42;31.75;;;16.63;;
12597;SDS011;6364;53.590;9.956;2023-12-04T14:06:08;29.17;;;15.80;;
12597;SDS011;6364;53.590;9.956;2023-12-04T14:08:34;33.17;;;16.23;;
12597;SDS011;6364;53.590;9.956;2023-12-04T14:11:00;32.75;;;16.30;;
12597;SDS011;6364;53.590;9.956;2023-12-04T14:13:26;32.58;;;16.88;;
12597;SDS011;6364;53.590;9.956;2023-12-04T14:15:52;32.72;;;17.05;;
12597;SDS011;6364;53.590;9.956;2023-12-04T14:18:17;33.80;;;17.67;;
12597;SDS011;6364;53.590;9.956;2023-12-04T14:20:42;39.30;;;17.42;;
12597;SDS011;6364;53.590;9.956;2023-12-04T14:23:08;32.97;;;16.92;;
12597;SDS011;6364;53.590;9.956;2023-12-04T14:25:33;33.63;;;16.65;;
12597;SDS011;6364;53.590;9.956;2023-12-04T14:27:59;34.25;;;17.40;;
12597;SDS011;6364;53.590;9.956;2023-12-04T14:30:24;32.28;;;16.92;;
12597;SDS011;6364;53.590;9.956;2023-12-04T14:32:52;34.75;;;18.15;;
12597;SDS011;6364;53.590;9.956;2023-12-04T14:35:18;35.03;;;17.63;;